createdAt,value
2023-01-19T00:01:41.246Z,-0.40
2023-01-19T00:04:08.395Z,-0.50
2023-01-19T00:06:35.629Z,-0.50
2023-01-19T00:09:03.284Z,-0.60
2023-01-19T00:11:30.466Z,-0.60
2023-01-19T00:14:04.059Z,-0.70
2023-01-19T00:16:51.185Z,-0.60
2023-01-19T00:19:22.171Z,-0.60
2023-01-19T00:22:10.786Z,-0.50
2023-01-19T00:24:46.305Z,-0.40
2023-01-19T00:27:24.960Z,-0.40
2023-01-19T00:30:03.450Z,-0.40
2023-01-19T00:32:36.977Z,-0.40
2023-01-19T00:35:08.718Z,-0.40
2023-01-19T00:38:26.695Z,-0.40
2023-01-19T00:41:00.799Z,-0.50
2023-01-19T00:43:41.167Z,-0.60
2023-01-19T00:46:20.764Z,-0.60
2023-01-19T00:48:54.439Z,-0.50
2023-01-19T00:51:34.234Z,-0.50
2023-01-19T00:54:11.523Z,-0.50
2023-01-19T00:56:44.950Z,-0.50
2023-01-19T00:59:21.259Z,-0.50
2023-01-19T01:02:10.168Z,-0.50
2023-01-19T01:04:48.300Z,-0.50
2023-01-19T01:07:27.985Z,-0.50
2023-01-19T01:09:58.139Z,-0.40
2023-01-19T01:12:37.813Z,-0.40
2023-01-19T01:15:14.720Z,-0.50
2023-01-19T01:17:54.401Z,-0.50
2023-01-19T01:20:48.191Z,-0.60
2023-01-19T01:23:29.992Z,-0.60
2023-01-19T01:26:02.218Z,-0.70
2023-01-19T01:28:37.841Z,-0.60
2023-01-19T01:31:32.804Z,-0.60
2023-01-19T01:34:06.921Z,-0.70
2023-01-19T01:36:48.584Z,-0.70
2023-01-19T01:39:37.809Z,-0.80
2023-01-19T01:42:24.870Z,-0.80
2023-01-19T01:45:07.371Z,-0.80
2023-01-19T01:47:51.495Z,-0.80
2023-01-19T01:50:41.072Z,-0.70
2023-01-19T01:53:21.010Z,-0.80
2023-01-19T01:55:58.540Z,-0.80
2023-01-19T01:58:28.957Z,-0.80
2023-01-19T02:01:28.977Z,-0.80
2023-01-19T02:04:10.785Z,-0.80
2023-01-19T02:07:02.374Z,-0.80
2023-01-19T02:09:51.328Z,-0.80
2023-01-19T02:12:44.021Z,-0.90
2023-01-19T02:15:35.180Z,-0.90
2023-01-19T02:19:05.171Z,-0.90
2023-01-19T02:21:40.001Z,-0.90
2023-01-19T02:24:11.672Z,-0.90
2023-01-19T02:26:46.806Z,-1.00
2023-01-19T02:29:23.920Z,-1.00
2023-01-19T02:32:12.047Z,-0.90
2023-01-19T02:34:46.483Z,-1.00
2023-01-19T02:37:38.954Z,-1.00
2023-01-19T02:40:15.854Z,-1.00
2023-01-19T02:42:58.907Z,-1.00
2023-01-19T02:45:40.123Z,-1.00
2023-01-19T02:48:09.050Z,-1.00
2023-01-19T02:50:52.379Z,-1.00
2023-01-19T02:53:47.388Z,-1.00
2023-01-19T02:56:49.076Z,-1.00
2023-01-19T02:59:48.793Z,-1.00
2023-01-19T03:02:51.993Z,-1.00
2023-01-19T03:05:40.281Z,-1.00
2023-01-19T03:08:33.944Z,-1.00
2023-01-19T03:11:11.674Z,-1.00
2023-01-19T03:13:55.936Z,-1.00
2023-01-19T03:17:02.981Z,-1.00
2023-01-19T03:19:48.170Z,-1.00
2023-01-19T03:22:25.372Z,-1.10
2023-01-19T03:24:56.038Z,-1.10
2023-01-19T03:27:47.473Z,-1.00
2023-01-19T03:30:29.634Z,-1.00
2023-01-19T03:33:27.957Z,-1.00
2023-01-19T03:36:03.758Z,-1.00
2023-01-19T03:38:36.032Z,-0.90
2023-01-19T03:41:09.017Z,-0.80
2023-01-19T03:43:37.960Z,-0.80
2023-01-19T03:46:08.312Z,-0.80
2023-01-19T03:48:35.507Z,-0.80
2023-01-19T03:51:08.213Z,-0.80
2023-01-19T03:53:35.587Z,-0.70
2023-01-19T03:56:10.213Z,-0.70
2023-01-19T03:58:41.642Z,-0.60
2023-01-19T04:01:22.938Z,-0.50
2023-01-19T04:04:02.367Z,-0.50
2023-01-19T04:06:34.707Z,-0.40
2023-01-19T04:09:20.224Z,-0.40
2023-01-19T04:11:47.689Z,-0.40
2023-01-19T04:14:19.317Z,-0.50
2023-01-19T04:17:25.214Z,-0.50
2023-01-19T04:19:59.873Z,-0.50
2023-01-19T04:22:35.827Z,-0.50
2023-01-19T04:25:12.857Z,-0.50
2023-01-19T04:27:44.668Z,-0.50
2023-01-19T04:30:32.685Z,-0.50
2023-01-19T04:33:23.038Z,-0.50
2023-01-19T04:35:58.295Z,-0.50
2023-01-19T04:38:44.681Z,-0.60
2023-01-19T04:41:18.605Z,-0.50
2023-01-19T04:43:55.906Z,-0.50
2023-01-19T04:46:27.335Z,-0.50
2023-01-19T04:49:17.302Z,-0.50
2023-01-19T04:51:52.139Z,-0.50
2023-01-19T04:54:29.464Z,-0.40
2023-01-19T04:56:58.499Z,-0.40
2023-01-19T04:59:35.425Z,-0.30
2023-01-19T05:02:10.120Z,-0.30
2023-01-19T05:05:06.408Z,-0.30
2023-01-19T05:07:37.357Z,-0.30
2023-01-19T05:10:12.432Z,-0.30
2023-01-19T05:12:43.585Z,-0.30
2023-01-19T05:15:24.795Z,-0.30
2023-01-19T05:18:01.690Z,-0.30
2023-01-19T05:20:32.608Z,-0.30
2023-01-19T05:23:20.400Z,-0.30
2023-01-19T05:26:00.901Z,-0.30
2023-01-19T05:28:44.241Z,-0.20
2023-01-19T05:31:18.548Z,-0.20
2023-01-19T05:34:09.564Z,-0.20
2023-01-19T05:36:56.803Z,-0.20
2023-01-19T05:39:26.895Z,-0.20
2023-01-19T05:42:05.531Z,-0.20
2023-01-19T05:44:35.334Z,-0.20
2023-01-19T05:47:05.514Z,-0.30
2023-01-19T05:49:39.960Z,-0.30
2023-01-19T05:52:07.528Z,-0.20
2023-01-19T05:54:58.727Z,-0.30
2023-01-19T05:57:39.107Z,-0.30
2023-01-19T06:00:19.333Z,-0.30
2023-01-19T06:02:51.918Z,-0.30
2023-01-19T06:05:22.339Z,-0.30
2023-01-19T06:08:00.838Z,-0.30
2023-01-19T06:10:54.525Z,-0.40
2023-01-19T06:13:42.265Z,-0.50
2023-01-19T06:16:18.236Z,-0.50
2023-01-19T06:19:05.154Z,-0.60
2023-01-19T06:21:35.138Z,-0.60
2023-01-19T06:24:05.726Z,-0.70
2023-01-19T06:26:43.906Z,-0.70
2023-01-19T06:29:30.446Z,-0.70
2023-01-19T06:32:00.543Z,-0.60
2023-01-19T06:34:35.375Z,-0.70
2023-01-19T06:37:05.288Z,-0.60
2023-01-19T06:39:33.281Z,-0.60
2023-01-19T06:42:03.209Z,-0.50
2023-01-19T06:44:45.630Z,-0.50
2023-01-19T06:47:16.502Z,-0.40
2023-01-19T06:49:54.921Z,-0.30
2023-01-19T06:52:22.692Z,-0.30
2023-01-19T06:54:52.864Z,-0.30
2023-01-19T06:57:42.700Z,-0.20
2023-01-19T07:00:32.963Z,-0.20
2023-01-19T07:03:37.644Z,-0.20
2023-01-19T07:06:17.175Z,-0.20
2023-01-19T07:09:20.870Z,-0.10
2023-01-19T07:12:18.287Z,-0.10
2023-01-19T07:14:56.294Z,-0.10
2023-01-19T07:17:26.370Z,-0.10
2023-01-19T07:20:14.599Z,-0.10
2023-01-19T07:22:58.392Z,-0.10
2023-01-19T07:26:00.563Z,0.00
2023-01-19T07:29:16.401Z,0.00
2023-01-19T07:31:49.291Z,0.00
2023-01-19T07:34:20.290Z,0.10
2023-01-19T07:37:05.342Z,0.00
2023-01-19T07:40:01.743Z,0.00
2023-01-19T07:42:47.730Z,-0.10
2023-01-19T07:45:20.886Z,-0.20
2023-01-19T07:48:05.265Z,-0.20
2023-01-19T07:50:42.599Z,-0.20
2023-01-19T07:53:22.512Z,-0.30
2023-01-19T07:56:08.759Z,-0.40
2023-01-19T07:58:52.669Z,-0.40
2023-01-19T08:01:31.474Z,-0.40
2023-01-19T08:04:07.799Z,-0.40
2023-01-19T08:06:39.459Z,-0.40
2023-01-19T08:09:14.610Z,-0.30
2023-01-19T08:11:51.614Z,-0.30
2023-01-19T08:14:38.947Z,-0.30
2023-01-19T08:17:21.379Z,-0.30
2023-01-19T08:20:05.098Z,-0.30
2023-01-19T08:22:38.156Z,-0.20
2023-01-19T08:25:14.617Z,-0.10
2023-01-19T08:27:52.605Z,-0.10
2023-01-19T08:30:40.860Z,0.00
2023-01-19T08:33:17.584Z,0.00
2023-01-19T08:36:16.110Z,0.10
2023-01-19T08:39:13.960Z,0.10
2023-01-19T08:42:46.269Z,0.10
2023-01-19T08:48:46.296Z,0.20
2023-01-19T08:51:24.636Z,0.30
2023-01-19T08:54:02.952Z,0.20
2023-01-19T08:56:40.344Z,0.20
2023-01-19T08:59:22.388Z,0.20
2023-01-19T09:01:58.943Z,0.20
2023-01-19T09:04:46.201Z,0.20
2023-01-19T09:07:26.197Z,0.10
2023-01-19T09:09:58.176Z,0.20
2023-01-19T09:12:54.408Z,0.30
2023-01-19T09:15:44.464Z,0.30
2023-01-19T09:18:34.277Z,0.30
2023-01-19T09:21:19.577Z,0.30
2023-01-19T09:24:05.063Z,0.40
2023-01-19T09:26:49.887Z,0.40
2023-01-19T09:29:41.341Z,0.40
2023-01-19T09:32:27.977Z,0.40
2023-01-19T09:35:20.909Z,0.50
2023-01-19T09:38:04.731Z,0.50
2023-01-19T09:41:51.664Z,0.50
2023-01-19T09:44:20.819Z,0.50
2023-01-19T09:48:06.521Z,0.50
2023-01-19T09:50:33.231Z,0.60
2023-01-19T09:54:26.448Z,0.60
2023-01-19T09:57:13.378Z,0.70
2023-01-19T10:01:01.150Z,0.70
2023-01-19T10:03:50.786Z,0.80
2023-01-19T10:06:48.408Z,0.90
2023-01-19T10:09:33.937Z,0.80
2023-01-19T10:13:11.046Z,0.90
2023-01-19T10:16:23.542Z,1.00
2023-01-19T10:19:55.576Z,1.10
2023-01-19T10:22:42.544Z,0.90
2023-01-19T10:25:29.661Z,1.00
2023-01-19T10:28:31.815Z,1.00
2023-01-19T10:34:35.153Z,1.00
2023-01-19T10:38:32.271Z,1.10
2023-01-19T10:42:37.115Z,0.90
2023-01-19T10:45:53.296Z,0.90
2023-01-19T10:49:23.633Z,1.10
2023-01-19T10:52:44.495Z,1.00
2023-01-19T10:56:05.247Z,1.10
2023-01-19T10:59:17.326Z,1.20
2023-01-19T11:02:30.179Z,1.40
2023-01-19T11:05:50.056Z,1.50
2023-01-19T11:09:07.815Z,1.80
2023-01-19T11:12:12.223Z,1.90
2023-01-19T11:22:35.954Z,2.00
2023-01-19T11:27:10.676Z,2.00
2023-01-19T11:33:39.190Z,2.40
2023-01-19T11:36:56.267Z,2.60
2023-01-19T11:40:41.643Z,2.60
2023-01-19T11:43:51.549Z,2.50
2023-01-19T11:46:54.708Z,2.60
2023-01-19T11:50:12.149Z,2.60
2023-01-19T11:54:16.736Z,2.70
2023-01-19T12:00:15.166Z,2.70
2023-01-19T12:03:33.746Z,2.80
2023-01-19T12:06:58.589Z,2.70
2023-01-19T12:10:30.269Z,2.80
2023-01-19T12:13:46.011Z,2.80
2023-01-19T12:16:53.851Z,2.60
2023-01-19T12:20:02.126Z,2.80
2023-01-19T12:23:18.993Z,3.00
2023-01-19T12:31:01.305Z,3.20
2023-01-19T12:35:25.621Z,3.20
2023-01-19T12:38:34.994Z,3.30
2023-01-19T12:41:38.810Z,3.50
2023-01-19T12:52:13.755Z,3.10
2023-01-19T12:55:11.199Z,3.20
2023-01-19T12:58:19.460Z,3.30
2023-01-19T13:01:37.568Z,3.40
2023-01-19T13:08:15.982Z,3.30
2023-01-19T13:11:12.249Z,3.10
2023-01-19T13:14:31.971Z,3.10
2023-01-19T13:17:21.695Z,3.10
2023-01-19T13:20:33.684Z,3.10
2023-01-19T13:23:53.738Z,3.30
2023-01-19T13:26:42.339Z,3.50
2023-01-19T13:29:47.248Z,3.70
2023-01-19T13:32:21.509Z,3.80
2023-01-19T13:35:42.645Z,4.00
2023-01-19T13:48:03.685Z,3.80
2023-01-19T13:50:38.454Z,3.50
2023-01-19T13:53:41.441Z,3.40
2023-01-19T13:56:51.670Z,3.30
2023-01-19T13:59:39.623Z,3.20
2023-01-19T14:02:34.286Z,3.10
2023-01-19T14:05:45.493Z,3.00
2023-01-19T14:08:50.365Z,3.20
2023-01-19T14:11:21.077Z,3.30
2023-01-19T14:17:59.668Z,3.40
2023-01-19T14:21:34.260Z,3.50
2023-01-19T14:24:23.590Z,3.50
2023-01-19T14:27:11.048Z,3.70
2023-01-19T14:29:51.911Z,3.80
2023-01-19T14:33:17.845Z,3.70
2023-01-19T14:36:03.903Z,3.80
2023-01-19T14:38:36.627Z,3.70
2023-01-19T14:41:21.477Z,3.50
2023-01-19T14:44:07.825Z,3.50
2023-01-19T14:46:59.693Z,3.40
2023-01-19T14:53:17.245Z,3.30
2023-01-19T14:58:42.724Z,3.20
2023-01-19T15:01:12.468Z,3.00
2023-01-19T15:03:45.236Z,3.00
2023-01-19T15:06:25.760Z,2.90
2023-01-19T15:08:53.783Z,2.90
2023-01-19T15:11:57.460Z,2.90
2023-01-19T15:18:08.513Z,2.90
2023-01-19T15:21:15.477Z,2.90
2023-01-19T15:24:18.727Z,2.90
2023-01-19T15:27:11.133Z,2.80
2023-01-19T15:30:28.867Z,2.90
2023-01-19T15:33:52.130Z,2.80
2023-01-19T15:36:27.992Z,2.80
2023-01-19T15:39:14.960Z,2.80
2023-01-19T15:45:10.368Z,2.60
2023-01-19T15:48:04.458Z,2.70
2023-01-19T15:51:05.243Z,2.70
2023-01-19T15:53:41.555Z,2.70
2023-01-19T15:58:27.880Z,2.70
2023-01-19T16:00:12.300Z,2.60
2023-01-19T16:03:13.638Z,2.60
2023-01-19T16:06:24.080Z,2.60
2023-01-19T16:09:40.975Z,2.40
2023-01-19T16:13:01.405Z,2.40
2023-01-19T16:18:30.831Z,2.10
2023-01-19T16:21:10.019Z,2.10
2023-01-19T16:25:23.053Z,2.10
2023-01-19T16:39:46.155Z,1.70
2023-01-19T16:42:16.798Z,1.60
2023-01-19T16:48:43.021Z,1.50
2023-01-19T16:51:51.860Z,1.30
2023-01-19T16:54:26.095Z,1.10
2023-01-19T16:57:23.692Z,1.00
2023-01-19T17:00:03.171Z,1.00
2023-01-19T17:02:39.566Z,1.00
2023-01-19T17:05:33.472Z,1.10
2023-01-19T17:08:03.937Z,1.10
2023-01-19T17:10:49.391Z,1.10
2023-01-19T17:13:41.703Z,1.20
2023-01-19T17:16:09.930Z,1.20
2023-01-19T17:18:47.228Z,1.20
2023-01-19T17:21:18.148Z,1.20
2023-01-19T17:24:10.797Z,1.20
2023-01-19T17:27:22.841Z,1.10
2023-01-19T17:30:20.372Z,1.10
2023-01-19T17:32:57.871Z,1.00
2023-01-19T17:36:29.666Z,0.90
2023-01-19T17:39:33.438Z,0.80
2023-01-19T17:42:16.493Z,0.60
2023-01-19T17:45:19.512Z,0.60
2023-01-19T17:48:34.522Z,0.60
2023-01-19T17:51:33.877Z,0.60
2023-01-19T17:54:27.686Z,0.70
2023-01-19T17:57:12.535Z,0.70
2023-01-19T17:59:44.492Z,0.60
2023-01-19T18:02:16.583Z,0.50
2023-01-19T18:05:19.098Z,0.50
2023-01-19T18:08:34.623Z,0.40
2023-01-19T18:11:15.193Z,0.30
2023-01-19T18:13:52.618Z,0.30
2023-01-19T18:16:42.760Z,0.40
2023-01-19T18:19:41.355Z,0.40
2023-01-19T18:23:00.594Z,0.30
2023-01-19T18:25:46.250Z,0.20
2023-01-19T18:28:39.503Z,0.10
2023-01-19T18:31:49.098Z,0.10
2023-01-19T18:35:15.692Z,-0.10
2023-01-19T18:37:59.546Z,-0.10
2023-01-19T18:40:54.461Z,-0.10
2023-01-19T18:48:51.100Z,-0.20
2023-01-19T18:50:33.987Z,-0.30
2023-01-19T18:53:23.409Z,-0.30
2023-01-19T18:57:02.579Z,-0.40
2023-01-19T19:00:11.317Z,-0.50
2023-01-19T19:03:17.380Z,-0.60
2023-01-19T19:06:34.281Z,-0.60
2023-01-19T19:12:55.140Z,-0.60
2023-01-19T19:16:11.403Z,-0.70
2023-01-19T19:19:00.113Z,-0.90
2023-01-19T19:22:16.991Z,-0.90
2023-01-19T19:25:53.970Z,-1.00
2023-01-19T19:29:20.577Z,-1.00
2023-01-19T19:32:43.207Z,-1.00
2023-01-19T19:35:57.511Z,-0.90
2023-01-19T19:42:13.368Z,-1.00
2023-01-19T19:44:58.958Z,-1.00
2023-01-19T19:48:07.004Z,-1.00
2023-01-19T19:51:18.829Z,-1.00
2023-01-19T19:54:42.088Z,-1.00
2023-01-19T19:58:53.067Z,-1.10
2023-01-19T20:00:53.322Z,-1.10
2023-01-19T20:06:55.399Z,-0.90
2023-01-19T20:09:59.627Z,-0.70
2023-01-19T20:13:43.550Z,-0.50
2023-01-19T20:17:16.238Z,-0.20
2023-01-19T20:19:59.276Z,-0.10
2023-01-19T20:23:24.950Z,0.10
2023-01-19T20:26:16.219Z,0.20
2023-01-19T20:29:14.407Z,0.20
2023-01-19T20:33:20.109Z,0.10
2023-01-19T20:35:46.495Z,0.20
2023-01-19T20:38:32.783Z,0.10
2023-01-19T20:42:09.945Z,0.00
2023-01-19T20:45:22.066Z,0.00
2023-01-19T20:48:43.747Z,-0.10
2023-01-19T20:52:09.277Z,-0.10
2023-01-19T20:54:55.981Z,-0.10
2023-01-19T20:58:38.333Z,-0.20
2023-01-19T21:01:48.236Z,-0.30
2023-01-19T21:04:35.507Z,-0.40
2023-01-19T21:10:57.519Z,-0.50
2023-01-19T21:17:12.728Z,-0.30
2023-01-19T21:20:25.250Z,-0.20
2023-01-19T21:32:48.578Z,0.10
2023-01-19T21:35:41.859Z,0.10
2023-01-19T21:38:36.758Z,0.10
2023-01-19T21:41:46.403Z,0.10
2023-01-19T21:44:34.545Z,0.00
2023-01-19T21:47:23.461Z,-0.20
2023-01-19T21:50:18.708Z,-0.20
2023-01-19T21:53:17.342Z,-0.30
2023-01-19T21:56:11.317Z,-0.30
2023-01-19T21:58:56.325Z,-0.30
2023-01-19T22:05:35.580Z,-0.30
2023-01-19T22:08:13.961Z,-0.20
2023-01-19T22:11:07.296Z,-0.10
2023-01-19T22:13:51.022Z,0.00
2023-01-19T22:16:39.399Z,0.10
2023-01-19T22:20:07.715Z,0.10
2023-01-19T22:26:42.395Z,0.10
2023-01-19T22:29:44.993Z,0.10
2023-01-19T22:32:59.216Z,0.10
2023-01-19T22:35:57.498Z,0.20
2023-01-19T22:39:39.470Z,0.10
2023-01-19T22:42:38.100Z,0.20
2023-01-19T22:45:41.949Z,0.20
2023-01-19T22:52:02.474Z,0.30
2023-01-19T22:55:20.936Z,0.30
2023-01-19T22:58:07.211Z,0.40
2023-01-19T23:00:50.947Z,0.40
2023-01-19T23:03:44.952Z,0.30
2023-01-19T23:06:38.875Z,0.30
2023-01-19T23:09:49.501Z,0.30
2023-01-19T23:12:58.008Z,0.30
2023-01-19T23:15:51.934Z,0.30
2023-01-19T23:18:46.902Z,0.30
2023-01-19T23:24:18.693Z,0.30
2023-01-19T23:27:09.642Z,0.30
2023-01-19T23:30:18.578Z,0.30
2023-01-19T23:33:11.470Z,0.30
2023-01-19T23:35:41.189Z,0.30
2023-01-19T23:38:48.563Z,0.30
2023-01-19T23:41:21.060Z,0.30
2023-01-19T23:43:55.234Z,0.20
2023-01-19T23:46:34.978Z,0.20
2023-01-19T23:49:26.457Z,0.30
2023-01-19T23:52:00.522Z,0.20
2023-01-19T23:54:45.008Z,0.30
2023-01-19T23:57:33.303Z,0.20
